Lisbon, ND (58054)

21:41 CDT le 04 juillet 2015 (GMT -0500)
Gwinner-melroe | | Change Station
CLOSE
Current Station
Aéroport
Location: Gwinner,
Altitude: 1266 ft
Stations météo à proximité

Alt. 1266 ft 46.22 °N, 97.64 °W | Updated 6 minutes ago

Ciel dégagé
Ciel dégagé
75 ° F
Paraît 75 ° F
N
7
Vent Variable Vent de Sud

Aujourd'hui
Haut(e) -- | Bas -- ° F
--% Risque de précip.
Hier
Haut(e) -- | Bas -- ° F
Precip. -- pouce
5:43 AM 9:25 PM
Lune gibbeuse décroissante, 88% visible
Pression 29.80 pouce
Visibilité -9999.0 Miles terrestres
Nuages Ciel dégagé
Point de rosée 66 ° F
Humidité 73%
Précipitations 0.00 pouce
Profondeur de la couche neigeuse Non disponible.
UV 0 sur 12
Pollen 5.20 sur 12
Qualité de l'air Non disponible.
Flu Activity Non disponible.
METAR KGWR 050235Z AUTO 18006KT CLR 24/19 A2980 RMK AO1

More Conditions Fewer Conditions

Pression 29.80 pouce
Visibilité -9999.0 Miles terrestres
Nuages Ciel dégagé
Point de rosée 66 ° F
Humidité 73%
Précipitations 0.00 pouce
Profondeur de la couche neigeuse Non disponible.
UV 0 sur 12
Pollen 5.20 sur 12
Qualité de l'air Non disponible.
Flu Activity Non disponible.
METAR KGWR 050235Z AUTO 18006KT CLR 24/19 A2980 RMK AO1

More Conditions Fewer Conditions

10-Day Weather Forecast

×

Almanac

Astronomie

Jul. 04, 2015 Lever Coucher
Temps réel
Crépuscule civil
Crépuscule nautique
Crépuscule astronomique
Lune
Durée de lumière visible
Longueur du jour
Tomorrow will be .
, % of the Moon is Illuminated

Extrêmes aujourd'hui

State Highs State Lows

Community

WunderPhotos

Upload Photos

1,835,172 Photos téléchargées !

WunderBlogs® & News

Nearby

Qualité de l'air

  Qualité de l'air Indice de la qualité de l'air Polluant
Not available.

Épaisseur de neige

Station Depth Altitude

Activité sismique

Ville Distance Mag. Time & Date
Minimum magnitude displayed is 2.5.

Températures des eaux côtières

Lieu Température

Stations

Stations météo à proximité

Emplacement de la station Température Refroidissement éolien Point de rosée Humidité Vent Precip. Alt. Mise à jour Type